createdAt,value
2018-03-19T00:00:37.828Z,-1.78
2018-03-19T00:03:05.554Z,-1.90
2018-03-19T00:05:33.530Z,-1.67
2018-03-19T00:08:01.277Z,-1.73
2018-03-19T00:10:29.197Z,-1.70
2018-03-19T00:12:56.951Z,-1.57
2018-03-19T00:15:24.624Z,-1.82
2018-03-19T00:17:52.395Z,-1.72
2018-03-19T00:20:20.036Z,-1.83
2018-03-19T00:22:48.896Z,-1.68
2018-03-19T00:25:16.605Z,-1.86
2018-03-19T00:27:44.956Z,-1.80
2018-03-19T00:30:12.500Z,-1.86
2018-03-19T00:32:40.097Z,-1.81
2018-03-19T00:35:07.851Z,-1.71
2018-03-19T00:37:35.616Z,-1.85
2018-03-19T00:40:03.382Z,-1.86
2018-03-19T00:42:31.076Z,-1.76
2018-03-19T00:44:58.711Z,-1.62
2018-03-19T00:47:26.836Z,-1.53
2018-03-19T00:49:54.379Z,-1.66
2018-03-19T00:52:21.921Z,-1.71
2018-03-19T00:54:49.574Z,-1.78
2018-03-19T00:57:17.114Z,-1.68
2018-03-19T00:59:44.657Z,-1.72
2018-03-19T01:02:12.351Z,-1.58
2018-03-19T01:04:39.969Z,-1.73
2018-03-19T01:07:07.641Z,-1.76
2018-03-19T01:09:35.437Z,-1.77
2018-03-19T01:12:03.096Z,-1.69
2018-03-19T01:14:31.736Z,-1.65
2018-03-19T01:16:59.301Z,-1.74
2018-03-19T01:19:26.969Z,-1.86
2018-03-19T01:21:54.764Z,-1.76
2018-03-19T01:24:22.304Z,-1.61
2018-03-19T01:26:50.961Z,-1.75
2018-03-19T01:29:19.644Z,-1.78
2018-03-19T01:31:47.294Z,-1.70
2018-03-19T01:34:15.794Z,-1.69
2018-03-19T01:36:43.358Z,-1.48
2018-03-19T01:39:10.915Z,-1.59
2018-03-19T01:41:38.681Z,-1.65
2018-03-19T01:44:06.284Z,-1.53
2018-03-19T01:46:34.110Z,-1.54
2018-03-19T01:49:01.809Z,-1.73
2018-03-19T01:51:29.501Z,-1.81
2018-03-19T01:53:57.152Z,-1.72
2018-03-19T01:56:24.801Z,-1.48
2018-03-19T01:58:52.897Z,-1.51
2018-03-19T02:01:20.880Z,-1.48
2018-03-19T02:03:48.750Z,-1.36
2018-03-19T02:06:16.337Z,-1.70
2018-03-19T02:08:43.904Z,-1.79
2018-03-19T02:11:11.501Z,-1.57
2018-03-19T02:13:39.066Z,-1.51
2018-03-19T02:16:06.740Z,-1.72
2018-03-19T02:18:34.386Z,-1.64
2018-03-19T02:21:02.030Z,-1.60
2018-03-19T02:23:29.760Z,-1.83
2018-03-19T02:25:57.292Z,-1.71
2018-03-19T02:28:24.985Z,-1.60
2018-03-19T02:30:52.695Z,-1.61
2018-03-19T02:33:20.498Z,-1.76
2018-03-19T02:35:48.253Z,-1.67
2018-03-19T02:38:15.965Z,-1.53
2018-03-19T02:40:43.774Z,-1.53
2018-03-19T02:43:11.330Z,-1.67
2018-03-19T02:45:39.118Z,-1.53
2018-03-19T02:48:06.867Z,-1.54
2018-03-19T02:50:35.374Z,-1.64
2018-03-19T02:53:03.055Z,-1.86
2018-03-19T02:55:30.817Z,-1.58
2018-03-19T02:57:58.732Z,-1.82
2018-03-19T03:00:26.284Z,-1.83
2018-03-19T03:02:55.097Z,-1.62
2018-03-19T03:05:24.355Z,-1.70
2018-03-19T03:07:53.704Z,-1.77
2018-03-19T03:10:21.958Z,-1.75
2018-03-19T03:12:50.602Z,-1.63
2018-03-19T03:15:20.067Z,-1.57
2018-03-19T03:17:47.616Z,-1.64
2018-03-19T03:20:16.835Z,-1.76
2018-03-19T03:22:44.375Z,-1.74
2018-03-19T03:25:13.511Z,-1.86
2018-03-19T03:27:43.566Z,-1.90
2018-03-19T03:30:11.821Z,-1.66
2018-03-19T03:32:39.521Z,-1.78
2018-03-19T03:35:07.269Z,-1.60
2018-03-19T03:37:34.895Z,-1.63
2018-03-19T03:40:02.437Z,-1.60
2018-03-19T03:42:30.226Z,-1.68
2018-03-19T03:44:57.826Z,-1.49
2018-03-19T03:47:25.442Z,-1.85
2018-03-19T03:49:53.014Z,-1.60
2018-03-19T03:52:20.555Z,-1.81
2018-03-19T03:54:48.636Z,-1.73
2018-03-19T03:57:16.406Z,-1.83
2018-03-19T03:59:44.151Z,-1.83
2018-03-19T04:02:11.885Z,-1.61
2018-03-19T04:04:39.416Z,-1.81
2018-03-19T04:07:07.035Z,-1.72
2018-03-19T04:09:34.595Z,-1.70
2018-03-19T04:12:02.233Z,-1.85
2018-03-19T04:14:29.809Z,-1.75
2018-03-19T04:16:57.606Z,-1.81
2018-03-19T04:19:25.427Z,-1.67
2018-03-19T04:21:53.047Z,-1.75
2018-03-19T04:24:20.597Z,-1.75
2018-03-19T04:26:48.431Z,-1.59
2018-03-19T04:29:16.045Z,-1.73
2018-03-19T04:31:43.719Z,-1.80
2018-03-19T04:34:11.360Z,-1.69
2018-03-19T04:36:38.905Z,-1.80
2018-03-19T04:39:06.560Z,-1.96
2018-03-19T04:41:34.247Z,-1.79
2018-03-19T04:44:02.045Z,-1.75
2018-03-19T04:46:30.751Z,-1.74
2018-03-19T04:48:58.397Z,-2.03
2018-03-19T04:51:26.120Z,-1.88
2018-03-19T04:53:53.672Z,-1.94
2018-03-19T04:56:21.325Z,-1.94
2018-03-19T04:58:49.016Z,-1.91
2018-03-19T05:01:17.260Z,-1.91
2018-03-19T05:03:44.891Z,-1.98
2018-03-19T05:06:12.555Z,-2.10
2018-03-19T05:08:40.130Z,-1.97
2018-03-19T05:11:07.787Z,-1.93
2018-03-19T05:13:35.415Z,-1.91
2018-03-19T05:16:03.071Z,-1.99
2018-03-19T05:18:30.667Z,-1.85
2018-03-19T05:20:58.257Z,-1.98
2018-03-19T05:23:25.802Z,-1.77
2018-03-19T05:25:54.726Z,-1.93
2018-03-19T05:28:22.522Z,-2.05
2018-03-19T05:30:50.336Z,-1.93
2018-03-19T05:33:18.105Z,-1.97
2018-03-19T05:35:46.036Z,-1.90
2018-03-19T05:38:13.711Z,-1.92
2018-03-19T05:40:41.305Z,-1.95
2018-03-19T05:43:08.930Z,-1.89
2018-03-19T05:45:37.246Z,-1.78
2018-03-19T05:48:04.969Z,-1.81
2018-03-19T05:50:32.630Z,-2.06
2018-03-19T05:53:00.400Z,-2.07
2018-03-19T05:55:45.171Z,-1.75
2018-03-19T05:58:13.697Z,-1.84
2018-03-19T06:00:41.758Z,-1.78
2018-03-19T06:03:09.315Z,-1.83
2018-03-19T06:05:36.951Z,-1.92
2018-03-19T06:08:04.720Z,-1.84
2018-03-19T06:10:33.015Z,-1.88
2018-03-19T06:13:00.570Z,-1.91
2018-03-19T06:15:28.226Z,-1.75
2018-03-19T06:17:56.020Z,-1.77
2018-03-19T06:20:23.574Z,-1.80
2018-03-19T06:22:51.187Z,-1.93
2018-03-19T06:25:19.007Z,-1.79
2018-03-19T06:27:46.555Z,-1.91
2018-03-19T06:30:15.040Z,-1.87
2018-03-19T06:32:42.909Z,-1.89
2018-03-19T06:35:10.766Z,-1.87
2018-03-19T06:37:38.390Z,-1.78
2018-03-19T06:40:06.131Z,-1.90
2018-03-19T06:42:33.907Z,-1.85
2018-03-19T06:45:01.791Z,-1.86
2018-03-19T06:47:29.516Z,-1.97
2018-03-19T06:49:57.342Z,-1.86
2018-03-19T06:52:24.891Z,-1.84
2018-03-19T06:54:52.576Z,-1.94
2018-03-19T06:57:20.456Z,-1.69
2018-03-19T06:59:48.210Z,-1.61
2018-03-19T07:02:16.007Z,-1.73
2018-03-19T07:04:44.240Z,-1.70
2018-03-19T07:07:11.763Z,-1.60
2018-03-19T07:09:39.341Z,-1.25
2018-03-19T07:12:06.964Z,-1.49
2018-03-19T07:14:34.696Z,-1.50
2018-03-19T07:17:02.872Z,-1.28
2018-03-19T07:19:30.950Z,-1.08
2018-03-19T07:21:58.781Z,-1.16
2018-03-19T07:24:26.526Z,-1.22
2018-03-19T07:26:54.310Z,-1.07
2018-03-19T07:29:21.991Z,-1.24
2018-03-19T07:31:50.385Z,-0.82
2018-03-19T07:34:18.232Z,-0.93
2018-03-19T07:36:45.787Z,-0.94
2018-03-19T07:39:13.374Z,-0.89
2018-03-19T07:41:41.093Z,-0.85
2018-03-19T07:44:08.636Z,-0.68
2018-03-19T07:46:38.086Z,-0.86
2018-03-19T07:49:05.785Z,-0.46
2018-03-19T07:51:33.621Z,-0.63
2018-03-19T07:54:01.318Z,-0.58
2018-03-19T07:56:29.178Z,-0.70
2018-03-19T07:58:56.781Z,-0.32
2018-03-19T08:01:24.439Z,-0.01
2018-03-19T08:03:52.097Z,-0.27
2018-03-19T08:06:19.910Z,-0.16
2018-03-19T08:08:47.892Z,0.14
2018-03-19T08:11:15.521Z,0.39
2018-03-19T08:13:43.216Z,0.53
2018-03-19T08:16:10.757Z,0.34
2018-03-19T08:18:38.346Z,0.06
2018-03-19T08:21:05.940Z,-0.12
2018-03-19T08:23:34.040Z,-0.18
2018-03-19T08:26:02.020Z,-0.08
2018-03-19T08:28:29.898Z,-0.05
2018-03-19T08:30:57.491Z,0.23
2018-03-19T08:33:25.180Z,-0.07
2018-03-19T08:35:53.040Z,0.23
2018-03-19T08:38:20.958Z,0.50
2018-03-19T08:40:48.929Z,0.55
2018-03-19T08:43:16.650Z,0.06
2018-03-19T08:45:44.312Z,0.20
2018-03-19T08:48:11.930Z,0.00
2018-03-19T08:50:39.597Z,-0.13
2018-03-19T08:53:07.219Z,0.03
2018-03-19T08:55:34.994Z,0.23
2018-03-19T08:58:02.601Z,0.42
2018-03-19T09:00:30.740Z,0.48
2018-03-19T09:02:58.342Z,0.70
2018-03-19T09:05:25.882Z,0.38
2018-03-19T09:07:53.654Z,0.45
2018-03-19T09:10:21.371Z,0.76
2018-03-19T09:12:49.055Z,0.68
2018-03-19T09:15:16.647Z,1.26
2018-03-19T09:17:44.362Z,1.16
2018-03-19T09:20:11.964Z,1.09
2018-03-19T09:22:39.602Z,1.11
2018-03-19T09:25:07.404Z,0.67
2018-03-19T09:27:35.751Z,0.92
2018-03-19T09:30:03.354Z,1.14
2018-03-19T09:32:31.305Z,1.26
2018-03-19T09:34:58.996Z,1.23
2018-03-19T09:37:26.646Z,0.97
2018-03-19T09:39:54.500Z,1.00
2018-03-19T09:42:22.155Z,1.33
2018-03-19T09:44:50.373Z,1.30
2018-03-19T09:47:18.040Z,1.28
2018-03-19T09:49:45.696Z,1.53
2018-03-19T09:52:13.687Z,1.99
2018-03-19T09:54:41.293Z,1.63
2018-03-19T09:57:09.007Z,1.55
2018-03-19T09:59:36.557Z,1.24
2018-03-19T10:02:04.172Z,1.40
2018-03-19T10:04:31.819Z,1.83
2018-03-19T10:06:59.422Z,1.86
2018-03-19T10:09:27.258Z,1.24
2018-03-19T10:11:54.925Z,1.42
2018-03-19T10:14:22.715Z,1.36
2018-03-19T10:16:50.646Z,1.25
2018-03-19T10:19:18.334Z,1.09
2018-03-19T10:21:46.183Z,1.57
2018-03-19T10:24:14.671Z,1.11
2018-03-19T10:26:42.216Z,1.12
2018-03-19T10:29:09.908Z,0.93
2018-03-19T10:31:37.537Z,1.08
2018-03-19T10:34:06.079Z,1.60
2018-03-19T10:36:33.801Z,1.77
2018-03-19T10:39:01.603Z,1.19
2018-03-19T10:41:29.440Z,0.84
2018-03-19T10:43:57.200Z,1.05
2018-03-19T10:46:25.316Z,1.52
2018-03-19T10:48:53.091Z,1.14
2018-03-19T10:51:21.542Z,1.32
2018-03-19T10:53:49.982Z,0.96
2018-03-19T10:56:18.091Z,0.92
2018-03-19T10:58:45.846Z,1.42
2018-03-19T11:04:14.295Z,1.37
2018-03-19T11:06:47.524Z,1.25
2018-03-19T11:09:21.756Z,1.35
2018-03-19T11:11:49.401Z,1.68
2018-03-19T11:14:17.095Z,1.36
2018-03-19T11:16:44.707Z,1.49
2018-03-19T11:19:12.421Z,1.49
2018-03-19T11:21:40.113Z,1.75
2018-03-19T11:24:07.856Z,1.96
2018-03-19T11:26:35.746Z,2.43
2018-03-19T11:29:03.384Z,2.10
2018-03-19T11:31:30.985Z,2.31
2018-03-19T11:33:58.875Z,2.02
2018-03-19T11:36:26.511Z,2.45
2018-03-19T11:38:54.054Z,2.54
2018-03-19T11:41:21.611Z,2.59
2018-03-19T11:43:49.549Z,2.86
2018-03-19T11:46:17.221Z,3.18
2018-03-19T11:48:46.241Z,3.51
2018-03-19T11:51:13.907Z,2.55
2018-03-19T11:53:41.602Z,2.95
2018-03-19T11:56:09.360Z,4.15
2018-03-19T11:58:37.783Z,3.26
2018-03-19T12:01:05.450Z,2.47
2018-03-19T12:03:33.115Z,2.28
2018-03-19T12:06:00.918Z,2.17
2018-03-19T12:08:28.482Z,2.27
2018-03-19T12:10:56.348Z,2.80
2018-03-19T12:13:23.951Z,2.73
2018-03-19T12:15:51.613Z,2.17
2018-03-19T12:18:19.277Z,2.39
2018-03-19T12:20:46.850Z,2.62
2018-03-19T12:23:14.602Z,2.48
2018-03-19T12:25:42.486Z,2.68
2018-03-19T12:28:10.305Z,2.81
2018-03-19T12:30:38.389Z,2.64
2018-03-19T12:33:06.077Z,2.70
2018-03-19T12:35:34.007Z,3.18
2018-03-19T12:38:01.536Z,3.08
2018-03-19T12:40:29.345Z,2.60
2018-03-19T12:42:57.331Z,3.00
2018-03-19T12:45:25.143Z,2.45
2018-03-19T12:47:52.756Z,2.89
2018-03-19T12:50:20.397Z,3.12
2018-03-19T12:52:48.197Z,3.20
2018-03-19T12:55:15.849Z,3.31
2018-03-19T12:57:43.591Z,3.17
2018-03-19T13:00:11.228Z,2.89
2018-03-19T13:02:38.920Z,2.57
2018-03-19T13:05:06.461Z,2.84
2018-03-19T13:07:34.038Z,2.62
2018-03-19T13:10:01.715Z,2.85
2018-03-19T13:12:29.266Z,2.41
2018-03-19T13:14:57.300Z,2.72
2018-03-19T13:17:24.912Z,2.95
2018-03-19T13:19:52.930Z,3.49
2018-03-19T13:22:20.577Z,3.52
2018-03-19T13:24:48.250Z,3.43
2018-03-19T13:27:15.785Z,3.43
2018-03-19T13:29:43.320Z,3.36
2018-03-19T13:32:11.256Z,3.42
2018-03-19T13:34:39.022Z,3.22
2018-03-19T13:37:06.835Z,3.31
2018-03-19T13:39:34.518Z,3.20
2018-03-19T13:42:02.266Z,3.65
2018-03-19T13:44:30.097Z,3.76
2018-03-19T13:46:57.806Z,3.49
2018-03-19T13:49:25.500Z,3.12
2018-03-19T13:51:53.087Z,3.49
2018-03-19T13:54:21.339Z,2.93
2018-03-19T13:56:48.980Z,2.98
2018-03-19T13:59:16.660Z,2.98
2018-03-19T14:01:44.306Z,2.69
2018-03-19T14:04:11.905Z,2.73
2018-03-19T14:06:39.520Z,2.70
2018-03-19T14:09:07.142Z,2.86
2018-03-19T14:11:34.713Z,3.10
2018-03-19T14:14:02.422Z,2.69
2018-03-19T14:16:29.984Z,2.96
2018-03-19T14:18:57.770Z,2.84
2018-03-19T14:21:25.441Z,2.95
2018-03-19T14:23:53.026Z,3.14
2018-03-19T14:26:20.726Z,3.31
2018-03-19T14:28:48.321Z,3.16
2018-03-19T14:31:15.987Z,3.40
2018-03-19T14:33:44.835Z,3.14
2018-03-19T14:36:12.586Z,3.58
2018-03-19T14:38:40.756Z,3.31
2018-03-19T14:41:08.431Z,3.50
2018-03-19T14:43:36.020Z,3.59
2018-03-19T14:46:03.797Z,3.37
2018-03-19T14:48:31.567Z,3.21
2018-03-19T14:51:00.177Z,3.16
2018-03-19T14:53:27.791Z,3.00
2018-03-19T14:55:55.372Z,2.87
2018-03-19T14:58:22.963Z,2.84
2018-03-19T15:00:50.556Z,2.70
2018-03-19T15:03:18.226Z,2.66
2018-03-19T15:05:45.816Z,2.50
2018-03-19T15:08:13.352Z,2.37
2018-03-19T15:10:41.349Z,2.35
2018-03-19T15:13:09.661Z,2.22
2018-03-19T15:15:38.123Z,2.01
2018-03-19T15:18:06.007Z,1.82
2018-03-19T15:20:33.703Z,1.66
2018-03-19T15:23:01.540Z,1.40
2018-03-19T15:25:29.200Z,1.55
2018-03-19T15:27:56.896Z,1.74
2018-03-19T15:30:24.641Z,1.63
2018-03-19T15:32:52.245Z,1.54
2018-03-19T15:35:19.780Z,1.53
2018-03-19T15:37:47.347Z,1.64
2018-03-19T15:40:15.067Z,1.82
2018-03-19T15:42:42.741Z,1.79
2018-03-19T15:45:10.360Z,1.58
2018-03-19T15:47:38.020Z,1.58
2018-03-19T15:50:05.754Z,1.32
2018-03-19T15:52:33.581Z,1.28
2018-03-19T15:55:01.175Z,1.44
2018-03-19T15:57:28.756Z,1.24
2018-03-19T15:59:56.341Z,1.22
2018-03-19T16:02:23.987Z,1.22
2018-03-19T16:04:51.686Z,1.12
2018-03-19T16:07:19.276Z,1.02
2018-03-19T16:09:46.816Z,1.02
2018-03-19T16:12:14.604Z,1.21
2018-03-19T16:14:42.177Z,1.08
2018-03-19T16:17:09.840Z,1.16
2018-03-19T16:19:37.386Z,1.14
2018-03-19T16:22:05.056Z,1.29
2018-03-19T16:24:32.620Z,1.17
2018-03-19T16:27:00.293Z,0.94
2018-03-19T16:29:28.170Z,0.77
2018-03-19T16:31:55.911Z,0.37
2018-03-19T16:34:23.717Z,0.36
2018-03-19T16:36:51.414Z,0.40
2018-03-19T16:39:18.979Z,0.48
2018-03-19T16:41:46.581Z,0.47
2018-03-19T16:44:14.192Z,0.39
2018-03-19T16:46:42.566Z,0.49
2018-03-19T16:49:10.872Z,0.19
2018-03-19T16:51:38.546Z,0.15
2018-03-19T16:54:06.291Z,0.08
2018-03-19T16:56:33.972Z,0.02
2018-03-19T16:59:01.731Z,0.17
2018-03-19T17:01:29.280Z,0.27
2018-03-19T17:03:57.025Z,-0.02
2018-03-19T17:06:24.750Z,-0.01
2018-03-19T17:08:52.407Z,-0.02
2018-03-19T17:11:20.146Z,-0.03
2018-03-19T17:13:47.972Z,-0.01
2018-03-19T17:16:15.790Z,-0.05
2018-03-19T17:18:43.494Z,-0.11
2018-03-19T17:21:11.031Z,0.03
2018-03-19T17:23:38.580Z,-0.02
2018-03-19T17:26:06.422Z,-0.15
2018-03-19T17:28:34.391Z,-0.12
2018-03-19T17:31:02.032Z,-0.03
2018-03-19T17:33:30.250Z,0.04
2018-03-19T17:35:57.856Z,-0.15
2018-03-19T17:38:25.433Z,-0.15
2018-03-19T17:40:53.081Z,-0.23
2018-03-19T17:43:20.738Z,-0.25
2018-03-19T17:45:49.235Z,-0.17
2018-03-19T17:48:16.910Z,-0.31
2018-03-19T17:50:44.477Z,-0.36
2018-03-19T17:53:12.027Z,-0.46
2018-03-19T17:55:39.782Z,-0.33
2018-03-19T17:58:07.500Z,-0.50
2018-03-19T18:00:35.079Z,-0.46
2018-03-19T18:03:02.723Z,-0.56
2018-03-19T18:05:30.330Z,-0.41
2018-03-19T18:07:57.957Z,-0.48
2018-03-19T18:10:26.410Z,-0.50
2018-03-19T18:12:54.074Z,-0.49
2018-03-19T18:15:22.566Z,-0.55
2018-03-19T18:17:50.229Z,-0.63
2018-03-19T18:20:17.763Z,-0.55
2018-03-19T18:22:45.531Z,-0.44
2018-03-19T18:25:13.416Z,-0.37
2018-03-19T18:27:41.088Z,-0.46
2018-03-19T18:30:08.651Z,-0.46
2018-03-19T18:32:36.242Z,-0.49
2018-03-19T18:35:03.976Z,-0.47
2018-03-19T18:37:31.605Z,-0.54
2018-03-19T18:39:59.881Z,-0.29
2018-03-19T18:42:27.431Z,-0.49
2018-03-19T18:44:55.181Z,-0.42
2018-03-19T18:47:22.900Z,-0.57
2018-03-19T18:49:50.681Z,-0.54
2018-03-19T18:52:18.506Z,-0.53
2018-03-19T18:54:46.937Z,-0.35
2018-03-19T18:57:14.740Z,-0.59
2018-03-19T18:59:42.500Z,-0.64
2018-03-19T19:02:10.141Z,-0.56
2018-03-19T19:04:37.705Z,-0.56
2018-03-19T19:07:05.597Z,-0.53
2018-03-19T19:09:33.316Z,-0.59
2018-03-19T19:12:00.950Z,-0.56
2018-03-19T19:14:28.917Z,-0.58
2018-03-19T19:16:56.497Z,-0.62
2018-03-19T19:19:24.236Z,-0.66
2018-03-19T19:21:51.842Z,-0.48
2018-03-19T19:24:19.951Z,-0.43
2018-03-19T19:26:47.517Z,-0.35
2018-03-19T19:29:15.250Z,-0.24
2018-03-19T19:31:43.095Z,-0.31
2018-03-19T19:34:10.884Z,-0.29
2018-03-19T19:36:38.536Z,-0.21
2018-03-19T19:39:06.091Z,-0.30
2018-03-19T19:41:33.964Z,-0.48
2018-03-19T19:44:01.601Z,-0.29
2018-03-19T19:46:29.403Z,-0.32
2018-03-19T19:48:57.671Z,-0.19
2018-03-19T19:51:25.464Z,-0.45
2018-03-19T19:53:53.160Z,-0.56
2018-03-19T19:56:20.727Z,-0.46
2018-03-19T19:58:48.390Z,-0.44
2018-03-19T20:01:16.044Z,-0.34
2018-03-19T20:03:43.661Z,-0.39
2018-03-19T20:06:11.290Z,-0.32
2018-03-19T20:08:39.176Z,-0.32
2018-03-19T20:11:06.796Z,-0.63
2018-03-19T20:13:34.429Z,-0.66
2018-03-19T20:16:02.250Z,-0.64
2018-03-19T20:18:30.002Z,-0.39
2018-03-19T20:20:57.986Z,-0.20
2018-03-19T20:23:26.222Z,-0.33
2018-03-19T20:25:53.971Z,-0.52
2018-03-19T20:28:21.779Z,-0.51
2018-03-19T20:30:49.532Z,-0.58
2018-03-19T20:33:17.254Z,-0.33
2018-03-19T20:35:44.841Z,-0.47
2018-03-19T20:38:12.557Z,-0.51
2018-03-19T20:40:40.211Z,-0.51
2018-03-19T20:43:07.821Z,-0.44
2018-03-19T20:45:35.596Z,-0.42
2018-03-19T20:48:03.163Z,-0.63
2018-03-19T20:50:30.867Z,-0.64
2018-03-19T20:52:58.440Z,-0.49
2018-03-19T20:55:26.169Z,-0.30
2018-03-19T20:57:53.875Z,-0.36
2018-03-19T21:00:22.245Z,-0.34
2018-03-19T21:02:49.786Z,-0.48
2018-03-19T21:05:17.490Z,-0.20
2018-03-19T21:07:45.186Z,-0.26
2018-03-19T21:10:12.913Z,-0.25
2018-03-19T21:12:40.493Z,-0.53
2018-03-19T21:15:08.708Z,-0.59
2018-03-19T21:17:36.525Z,-0.50
2018-03-19T21:20:04.140Z,-0.31
2018-03-19T21:22:32.090Z,-0.34
2018-03-19T21:24:59.897Z,-0.10
2018-03-19T21:27:27.727Z,-0.49
2018-03-19T21:29:55.415Z,-0.23
2018-03-19T21:32:23.186Z,-0.32
2018-03-19T21:34:50.779Z,0.09
2018-03-19T21:37:19.070Z,-0.57
2018-03-19T21:39:46.758Z,-0.52
2018-03-19T21:42:14.522Z,-0.43
2018-03-19T21:44:42.191Z,-0.67
2018-03-19T21:47:09.926Z,-0.69
2018-03-19T21:49:37.555Z,-0.75
2018-03-19T21:52:05.976Z,-0.79
2018-03-19T21:54:33.661Z,-0.89
2018-03-19T21:57:01.625Z,-0.83
2018-03-19T21:59:29.895Z,-0.83
2018-03-19T22:01:57.567Z,-0.76
2018-03-19T22:04:25.217Z,-0.69
2018-03-19T22:06:52.785Z,-0.69
2018-03-19T22:09:20.490Z,-0.63
2018-03-19T22:11:48.176Z,-0.37
2018-03-19T22:14:16.187Z,-0.50
2018-03-19T22:16:43.970Z,-0.61
2018-03-19T22:19:11.535Z,-0.37
2018-03-19T22:21:39.137Z,-0.56
2018-03-19T22:24:07.180Z,-0.69
2018-03-19T22:26:34.822Z,-0.52
2018-03-19T22:29:02.416Z,-0.56
2018-03-19T22:31:30.527Z,-0.35
2018-03-19T22:33:58.372Z,-0.48
2018-03-19T22:36:26.105Z,-0.44
2018-03-19T22:38:53.715Z,-0.57
2018-03-19T22:41:21.470Z,-0.62
2018-03-19T22:43:49.237Z,-0.31
2018-03-19T22:46:16.983Z,-0.48
2018-03-19T22:48:44.540Z,-0.66
2018-03-19T22:51:12.791Z,-0.67
2018-03-19T22:53:40.417Z,-0.55
2018-03-19T22:56:08.097Z,-0.33
2018-03-19T22:58:35.642Z,-0.45
2018-03-19T23:01:03.291Z,-0.69
2018-03-19T23:03:31.012Z,-0.76
2018-03-19T23:05:58.561Z,-0.97
2018-03-19T23:08:26.100Z,-0.88
2018-03-19T23:10:56.232Z,-0.69
2018-03-19T23:13:23.935Z,-0.63
2018-03-19T23:15:51.696Z,-0.76
2018-03-19T23:18:19.467Z,-0.94
2018-03-19T23:20:47.746Z,-0.89
2018-03-19T23:23:15.517Z,-1.00
2018-03-19T23:25:44.112Z,-1.11
2018-03-19T23:28:11.667Z,-1.32
2018-03-19T23:30:39.247Z,-1.33
2018-03-19T23:33:07.001Z,-1.30
2018-03-19T23:35:34.555Z,-1.07
2018-03-19T23:38:02.436Z,-1.18
2018-03-19T23:40:30.146Z,-1.35
2018-03-19T23:42:57.855Z,-1.34
2018-03-19T23:45:26.153Z,-1.47
2018-03-19T23:47:53.757Z,-1.36
2018-03-19T23:50:21.460Z,-1.25
2018-03-19T23:52:49.106Z,-1.41
2018-03-19T23:55:16.772Z,-1.32
2018-03-19T23:57:46.631Z,-1.40
